sensor_id;sensor_type;location;lat;lon;timestamp;pressure;altitude;pressure_sealevel;temperature;humidity
44131;BME280;29792;48.726;9.248;2023-02-26T00:01:59;96340.41;;;0.02;100.00
44131;BME280;29792;48.726;9.248;2023-02-26T00:04:26;96339.69;;;0.00;100.00
44131;BME280;29792;48.726;9.248;2023-02-26T00:06:51;96339.00;;;-0.04;100.00
44131;BME280;29792;48.726;9.248;2023-02-26T00:09:17;96347.59;;;-0.08;100.00
44131;BME280;29792;48.726;9.248;2023-02-26T00:11:43;96341.09;;;-0.12;100.00
44131;BME280;29792;48.726;9.248;2023-02-26T00:14:13;96353.81;;;-0.15;100.00
44131;BME280;29792;48.726;9.248;2023-02-26T00:16:39;96353.97;;;-0.18;100.00
44131;BME280;29792;48.726;9.248;2023-02-26T00:19:06;96349.81;;;-0.19;100.00
44131;BME280;29792;48.726;9.248;2023-02-26T00:21:33;96349.88;;;-0.20;100.00
44131;BME280;29792;48.726;9.248;2023-02-26T00:23:59;96350.84;;;-0.23;100.00
44131;BME280;29792;48.726;9.248;2023-02-26T00:26:26;96355.06;;;-0.23;100.00
44131;BME280;29792;48.726;9.248;2023-02-26T00:28:52;96351.00;;;-0.26;100.00
44131;BME280;29792;48.726;9.248;2023-02-26T00:31:18;96354.41;;;-0.27;99.80
44131;BME280;29792;48.726;9.248;2023-02-26T00:33:45;96355.16;;;-0.25;99.97
44131;BME280;29792;48.726;9.248;2023-02-26T00:38:57;96353.53;;;-0.26;99.98
44131;BME280;29792;48.726;9.248;2023-02-26T00:41:25;96358.63;;;-0.27;100.00
44131;BME280;29792;48.726;9.248;2023-02-26T00:43:50;96362.84;;;-0.28;100.00
44131;BME280;29792;48.726;9.248;2023-02-26T00:46:41;96367.06;;;-0.28;100.00
44131;BME280;29792;48.726;9.248;2023-02-26T00:49:43;96362.03;;;-0.28;100.00
44131;BME280;29792;48.726;9.248;2023-02-26T00:53:22;96362.03;;;-0.28;99.91
44131;BME280;29792;48.726;9.248;2023-02-26T00:55:15;96361.13;;;-0.27;100.00
44131;BME280;29792;48.726;9.248;2023-02-26T00:57:40;96367.88;;;-0.28;100.00
44131;BME280;29792;48.726;9.248;2023-02-26T01:00:07;96360.56;;;-0.32;99.62
44131;BME280;29792;48.726;9.248;2023-02-26T01:02:36;96361.56;;;-0.36;100.00
44131;BME280;29792;48.726;9.248;2023-02-26T01:05:02;96362.47;;;-0.38;99.96
44131;BME280;29792;48.726;9.248;2023-02-26T01:07:29;96365.03;;;-0.39;99.10
44131;BME280;29792;48.726;9.248;2023-02-26T01:09:58;96367.56;;;-0.39;99.57
44131;BME280;29792;48.726;9.248;2023-02-26T01:12:23;96361.94;;;-0.44;99.71
44131;BME280;29792;48.726;9.248;2023-02-26T01:14:49;96356.16;;;-0.46;99.09
44131;BME280;29792;48.726;9.248;2023-02-26T01:17:22;96358.84;;;-0.49;99.22
44131;BME280;29792;48.726;9.248;2023-02-26T01:20:01;96359.66;;;-0.49;99.31
44131;BME280;29792;48.726;9.248;2023-02-26T01:22:34;96364.69;;;-0.49;99.23
44131;BME280;29792;48.726;9.248;2023-02-26T01:25:43;96358.09;;;-0.51;99.85
44131;BME280;29792;48.726;9.248;2023-02-26T01:28:12;96350.66;;;-0.54;99.46
44131;BME280;29792;48.726;9.248;2023-02-26T01:30:37;96357.47;;;-0.56;99.51
44131;BME280;29792;48.726;9.248;2023-02-26T01:33:12;96350.03;;;-0.58;98.61
44131;BME280;29792;48.726;9.248;2023-02-26T01:41:38;96358.66;;;-0.63;98.60
44131;BME280;29792;48.726;9.248;2023-02-26T01:49:20;96358.59;;;-0.81;98.21
44131;BME280;29792;48.726;9.248;2023-02-26T01:51:52;96358.88;;;-0.87;97.68
44131;BME280;29792;48.726;9.248;2023-02-26T01:54:21;96364.06;;;-0.90;98.49
44131;BME280;29792;48.726;9.248;2023-02-26T01:56:49;96354.97;;;-0.92;98.35
44131;BME280;29792;48.726;9.248;2023-02-26T01:59:17;96360.06;;;-0.94;98.21
44131;BME280;29792;48.726;9.248;2023-02-26T02:01:48;96356.94;;;-0.99;97.99
44131;BME280;29792;48.726;9.248;2023-02-26T02:04:14;96363.78;;;-1.02;97.58
44131;BME280;29792;48.726;9.248;2023-02-26T02:06:41;96366.38;;;-1.04;98.24
44131;BME280;29792;48.726;9.248;2023-02-26T02:09:07;96365.78;;;-1.09;98.47
44131;BME280;29792;48.726;9.248;2023-02-26T02:11:34;96365.91;;;-1.12;97.55
44131;BME280;29792;48.726;9.248;2023-02-26T02:25:35;96376.50;;;-1.24;97.61
44131;BME280;29792;48.726;9.248;2023-02-26T02:28:08;96384.16;;;-1.27;98.01
44131;BME280;29792;48.726;9.248;2023-02-26T02:33:51;96376.91;;;-1.33;97.87
44131;BME280;29792;48.726;9.248;2023-02-26T02:36:31;96392.03;;;-1.35;98.10
44131;BME280;29792;48.726;9.248;2023-02-26T02:39:02;96386.19;;;-1.35;97.89
44131;BME280;29792;48.726;9.248;2023-02-26T02:41:33;96392.97;;;-1.37;98.56
44131;BME280;29792;48.726;9.248;2023-02-26T02:44:02;96397.31;;;-1.41;98.41
44131;BME280;29792;48.726;9.248;2023-02-26T02:46:31;96395.69;;;-1.42;98.68
44131;BME280;29792;48.726;9.248;2023-02-26T02:49:09;96393.44;;;-1.48;98.58
44131;BME280;29792;48.726;9.248;2023-02-26T02:51:43;96401.91;;;-1.50;98.33
44131;BME280;29792;48.726;9.248;2023-02-26T02:54:13;96398.84;;;-1.57;98.78
44131;BME280;29792;48.726;9.248;2023-02-26T03:01:48;96400.06;;;-1.66;99.16
44131;BME280;29792;48.726;9.248;2023-02-26T03:04:15;96395.91;;;-1.67;98.92
44131;BME280;29792;48.726;9.248;2023-02-26T03:06:41;96399.28;;;-1.68;98.63
44131;BME280;29792;48.726;9.248;2023-02-26T03:09:08;96402.69;;;-1.69;99.29
44131;BME280;29792;48.726;9.248;2023-02-26T03:11:35;96401.94;;;-1.71;99.21
44131;BME280;29792;48.726;9.248;2023-02-26T03:14:02;96407.03;;;-1.72;99.11
44131;BME280;29792;48.726;9.248;2023-02-26T03:16:39;96410.47;;;-1.75;99.43
44131;BME280;29792;48.726;9.248;2023-02-26T03:19:23;96408.00;;;-1.76;98.89
44131;BME280;29792;48.726;9.248;2023-02-26T03:22:04;96413.09;;;-1.78;98.97
44131;BME280;29792;48.726;9.248;2023-02-26T03:24:55;96419.03;;;-1.79;99.27
44131;BME280;29792;48.726;9.248;2023-02-26T03:30:07;96422.63;;;-1.86;99.25
44131;BME280;29792;48.726;9.248;2023-02-26T03:32:46;96423.66;;;-1.90;99.80
44131;BME280;29792;48.726;9.248;2023-02-26T03:36:25;96429.59;;;-1.93;99.25
44131;BME280;29792;48.726;9.248;2023-02-26T03:38:26;96428.91;;;-1.96;99.91
44131;BME280;29792;48.726;9.248;2023-02-26T03:41:10;96429.78;;;-1.97;99.66
44131;BME280;29792;48.726;9.248;2023-02-26T03:46:12;96429.09;;;-2.01;99.76
44131;BME280;29792;48.726;9.248;2023-02-26T03:48:39;96428.28;;;-2.01;100.00
44131;BME280;29792;48.726;9.248;2023-02-26T03:51:09;96434.97;;;-2.02;100.00
44131;BME280;29792;48.726;9.248;2023-02-26T03:53:46;96423.19;;;-2.00;99.95
44131;BME280;29792;48.726;9.248;2023-02-26T03:56:21;96439.06;;;-1.99;100.00
44131;BME280;29792;48.726;9.248;2023-02-26T03:58:49;96437.44;;;-2.00;99.27
44131;BME280;29792;48.726;9.248;2023-02-26T04:01:22;96434.09;;;-2.01;100.00
44131;BME280;29792;48.726;9.248;2023-02-26T04:03:56;96444.09;;;-1.99;99.46
44131;BME280;29792;48.726;9.248;2023-02-26T04:06:23;96445.78;;;-2.00;99.93
44131;BME280;29792;48.726;9.248;2023-02-26T04:08:49;96439.94;;;-2.00;99.81
44131;BME280;29792;48.726;9.248;2023-02-26T04:11:19;96437.50;;;-2.02;99.66
44131;BME280;29792;48.726;9.248;2023-02-26T04:13:45;96449.34;;;-2.05;99.49
44131;BME280;29792;48.726;9.248;2023-02-26T04:16:12;96455.44;;;-2.11;99.50
44131;BME280;29792;48.726;9.248;2023-02-26T04:18:37;96454.72;;;-2.14;99.70
44131;BME280;29792;48.726;9.248;2023-02-26T04:21:03;96450.59;;;-2.15;100.00
44131;BME280;29792;48.726;9.248;2023-02-26T04:23:28;96449.75;;;-2.16;100.00
44131;BME280;29792;48.726;9.248;2023-02-26T04:25:54;96457.22;;;-2.14;100.00
44131;BME280;29792;48.726;9.248;2023-02-26T04:28:19;96448.94;;;-2.16;100.00
44131;BME280;29792;48.726;9.248;2023-02-26T04:30:44;96451.59;;;-2.19;99.57
44131;BME280;29792;48.726;9.248;2023-02-26T04:33:10;96454.16;;;-2.21;99.77
44131;BME280;29792;48.726;9.248;2023-02-26T04:35:35;96454.22;;;-2.22;100.00
44131;BME280;29792;48.726;9.248;2023-02-26T04:38:03;96462.56;;;-2.22;100.00
44131;BME280;29792;48.726;9.248;2023-02-26T04:40:29;96459.34;;;-2.25;100.00
44131;BME280;29792;48.726;9.248;2023-02-26T04:42:54;96464.44;;;-2.27;100.00
44131;BME280;29792;48.726;9.248;2023-02-26T04:45:19;96462.84;;;-2.29;99.98
44131;BME280;29792;48.726;9.248;2023-02-26T04:47:45;96457.88;;;-2.31;100.00
44131;BME280;29792;48.726;9.248;2023-02-26T04:50:10;96472.88;;;-2.29;100.00
44131;BME280;29792;48.726;9.248;2023-02-26T04:52:35;96469.66;;;-2.33;100.00
44131;BME280;29792;48.726;9.248;2023-02-26T04:55:01;96474.72;;;-2.35;100.00
44131;BME280;29792;48.726;9.248;2023-02-26T04:57:26;96468.97;;;-2.37;100.00
44131;BME280;29792;48.726;9.248;2023-02-26T04:59:51;96470.72;;;-2.39;100.00
44131;BME280;29792;48.726;9.248;2023-02-26T05:02:17;96480.84;;;-2.42;100.00
44131;BME280;29792;48.726;9.248;2023-02-26T05:04:43;96470.94;;;-2.45;100.00
44131;BME280;29792;48.726;9.248;2023-02-26T05:07:08;96471.78;;;-2.44;100.00
44131;BME280;29792;48.726;9.248;2023-02-26T05:09:33;96475.91;;;-2.43;100.00
44131;BME280;29792;48.726;9.248;2023-02-26T05:11:58;96484.19;;;-2.41;100.00
44131;BME280;29792;48.726;9.248;2023-02-26T05:14:24;96479.22;;;-2.43;100.00
44131;BME280;29792;48.726;9.248;2023-02-26T05:16:49;96486.72;;;-2.43;100.00
44131;BME280;29792;48.726;9.248;2023-02-26T05:19:15;96488.38;;;-2.42;100.00
44131;BME280;29792;48.726;9.248;2023-02-26T05:21:40;96486.00;;;-2.45;100.00
44131;BME280;29792;48.726;9.248;2023-02-26T05:24:06;96491.06;;;-2.46;100.00
44131;BME280;29792;48.726;9.248;2023-02-26T05:26:31;96491.94;;;-2.47;100.00
44131;BME280;29792;48.726;9.248;2023-02-26T05:28:57;96492.03;;;-2.50;100.00
44131;BME280;29792;48.726;9.248;2023-02-26T05:31:22;96502.88;;;-2.50;100.00
44131;BME280;29792;48.726;9.248;2023-02-26T05:33:47;96505.38;;;-2.50;100.00
44131;BME280;29792;48.726;9.248;2023-02-26T05:36:13;96503.66;;;-2.48;100.00
44131;BME280;29792;48.726;9.248;2023-02-26T05:38:38;96504.47;;;-2.47;100.00
44131;BME280;29792;48.726;9.248;2023-02-26T05:41:04;96516.19;;;-2.48;100.00
44131;BME280;29792;48.726;9.248;2023-02-26T05:43:29;96521.19;;;-2.48;100.00
44131;BME280;29792;48.726;9.248;2023-02-26T05:45:55;96519.56;;;-2.49;100.00
44131;BME280;29792;48.726;9.248;2023-02-26T05:48:21;96518.75;;;-2.49;100.00
44131;BME280;29792;48.726;9.248;2023-02-26T05:50:50;96524.56;;;-2.49;100.00
44131;BME280;29792;48.726;9.248;2023-02-26T05:53:16;96529.63;;;-2.50;100.00
44131;BME280;29792;48.726;9.248;2023-02-26T05:55:42;96525.53;;;-2.51;100.00
44131;BME280;29792;48.726;9.248;2023-02-26T05:58:08;96531.31;;;-2.51;100.00
44131;BME280;29792;48.726;9.248;2023-02-26T06:00:33;96543.94;;;-2.52;100.00
44131;BME280;29792;48.726;9.248;2023-02-26T06:02:58;96548.13;;;-2.53;100.00
44131;BME280;29792;48.726;9.248;2023-02-26T06:05:23;96547.31;;;-2.53;100.00
44131;BME280;29792;48.726;9.248;2023-02-26T06:07:49;96550.69;;;-2.54;100.00
44131;BME280;29792;48.726;9.248;2023-02-26T06:10:14;96549.91;;;-2.56;100.00
44131;BME280;29792;48.726;9.248;2023-02-26T06:12:39;96556.56;;;-2.55;100.00
44131;BME280;29792;48.726;9.248;2023-02-26T06:15:06;96551.59;;;-2.57;100.00
44131;BME280;29792;48.726;9.248;2023-02-26T06:17:32;96555.81;;;-2.57;100.00
44131;BME280;29792;48.726;9.248;2023-02-26T06:19:57;96555.81;;;-2.57;100.00
44131;BME280;29792;48.726;9.248;2023-02-26T06:22:23;96561.63;;;-2.57;100.00
44131;BME280;29792;48.726;9.248;2023-02-26T06:24:48;96570.84;;;-2.57;100.00
44131;BME280;29792;48.726;9.248;2023-02-26T06:27:14;96577.53;;;-2.58;100.00
44131;BME280;29792;48.726;9.248;2023-02-26T06:29:39;96578.38;;;-2.57;100.00
44131;BME280;29792;48.726;9.248;2023-02-26T06:32:05;96583.41;;;-2.59;100.00
44131;BME280;29792;48.726;9.248;2023-02-26T06:34:31;96582.63;;;-2.59;100.00
44131;BME280;29792;48.726;9.248;2023-02-26T06:36:56;96590.94;;;-2.59;100.00
44131;BME280;29792;48.726;9.248;2023-02-26T06:39:21;96598.41;;;-2.57;100.00
44131;BME280;29792;48.726;9.248;2023-02-26T06:41:47;96595.00;;;-2.55;100.00
44131;BME280;29792;48.726;9.248;2023-02-26T06:44:12;96599.97;;;-2.53;100.00
44131;BME280;29792;48.726;9.248;2023-02-26T06:46:37;96605.75;;;-2.51;100.00
44131;BME280;29792;48.726;9.248;2023-02-26T06:49:03;96608.25;;;-2.51;100.00
44131;BME280;29792;48.726;9.248;2023-02-26T06:51:29;96616.50;;;-2.49;100.00
44131;BME280;29792;48.726;9.248;2023-02-26T06:53:55;96617.22;;;-2.46;100.00
44131;BME280;29792;48.726;9.248;2023-02-26T06:56:20;96617.84;;;-2.39;100.00
44131;BME280;29792;48.726;9.248;2023-02-26T06:58:45;96622.56;;;-2.32;100.00
44131;BME280;29792;48.726;9.248;2023-02-26T07:01:11;96627.44;;;-2.27;100.00
44131;BME280;29792;48.726;9.248;2023-02-26T07:03:36;96628.19;;;-2.25;100.00
44131;BME280;29792;48.726;9.248;2023-02-26T07:06:10;96623.72;;;-2.17;100.00
44131;BME280;29792;48.726;9.248;2023-02-26T07:08:36;96630.22;;;-2.11;100.00
44131;BME280;29792;48.726;9.248;2023-02-26T07:11:02;96633.13;;;-2.00;100.00
44131;BME280;29792;48.726;9.248;2023-02-26T07:13:28;96635.31;;;-1.91;100.00
44131;BME280;29792;48.726;9.248;2023-02-26T07:15:53;96639.81;;;-1.77;100.00
44131;BME280;29792;48.726;9.248;2023-02-26T07:18:18;96640.81;;;-1.60;100.00
44131;BME280;29792;48.726;9.248;2023-02-26T07:20:44;96637.09;;;-1.29;100.00
44131;BME280;29792;48.726;9.248;2023-02-26T07:23:12;96641.69;;;-0.77;100.00
44131;BME280;29792;48.726;9.248;2023-02-26T07:25:38;96633.41;;;-0.21;100.00
44131;BME280;29792;48.726;9.248;2023-02-26T07:28:03;96627.84;;;0.65;100.00
44131;BME280;29792;48.726;9.248;2023-02-26T07:30:29;96623.28;;;1.40;100.00
44131;BME280;29792;48.726;9.248;2023-02-26T07:32:55;96629.75;;;1.46;100.00
44131;BME280;29792;48.726;9.248;2023-02-26T07:35:20;96639.94;;;1.44;97.10
44131;BME280;29792;48.726;9.248;2023-02-26T07:37:46;96643.34;;;1.26;93.91
44131;BME280;29792;48.726;9.248;2023-02-26T07:40:11;96647.19;;;0.99;92.87
44131;BME280;29792;48.726;9.248;2023-02-26T07:42:36;96634.00;;;0.76;92.12
44131;BME280;29792;48.726;9.248;2023-02-26T07:45:02;96643.41;;;0.56;91.98
44131;BME280;29792;48.726;9.248;2023-02-26T07:47:27;96647.84;;;0.32;91.31
44131;BME280;29792;48.726;9.248;2023-02-26T07:49:54;96653.72;;;0.32;92.16
44131;BME280;29792;48.726;9.248;2023-02-26T07:52:20;96654.94;;;0.24;92.04
44131;BME280;29792;48.726;9.248;2023-02-26T07:54:45;96654.06;;;0.06;91.66
44131;BME280;29792;48.726;9.248;2023-02-26T07:57:10;96659.66;;;-0.08;92.21
44131;BME280;29792;48.726;9.248;2023-02-26T07:59:35;96653.75;;;-0.07;92.81
44131;BME280;29792;48.726;9.248;2023-02-26T08:02:01;96654.59;;;0.31;94.82
44131;BME280;29792;48.726;9.248;2023-02-26T08:04:26;96654.03;;;0.97;96.22
44131;BME280;29792;48.726;9.248;2023-02-26T08:06:51;96651.22;;;1.37;95.75
44131;BME280;29792;48.726;9.248;2023-02-26T08:09:19;96657.25;;;1.68;94.03
44131;BME280;29792;48.726;9.248;2023-02-26T08:11:44;96659.31;;;1.77;92.32
44131;BME280;29792;48.726;9.248;2023-02-26T08:14:10;96665.78;;;1.98;92.27
44131;BME280;29792;48.726;9.248;2023-02-26T08:16:38;96658.31;;;2.28;93.15
44131;BME280;29792;48.726;9.248;2023-02-26T08:19:04;96658.69;;;2.52;91.33
44131;BME280;29792;48.726;9.248;2023-02-26T08:21:29;96658.22;;;2.61;89.93
44131;BME280;29792;48.726;9.248;2023-02-26T08:23:55;96660.81;;;2.44;88.10
44131;BME280;29792;48.726;9.248;2023-02-26T08:26:20;96662.72;;;2.24;87.13
44131;BME280;29792;48.726;9.248;2023-02-26T08:28:46;96669.47;;;2.08;86.05
44131;BME280;29792;48.726;9.248;2023-02-26T08:31:13;96674.25;;;1.97;85.79
44131;BME280;29792;48.726;9.248;2023-02-26T08:33:38;96668.34;;;1.81;85.89
44131;BME280;29792;48.726;9.248;2023-02-26T08:36:04;96668.47;;;1.62;86.24
44131;BME280;29792;48.726;9.248;2023-02-26T08:38:30;96669.06;;;1.50;86.35
44131;BME280;29792;48.726;9.248;2023-02-26T08:40:56;96681.78;;;1.31;86.12
44131;BME280;29792;48.726;9.248;2023-02-26T08:43:22;96676.81;;;1.12;86.41
44131;BME280;29792;48.726;9.248;2023-02-26T08:45:47;96687.03;;;0.92;87.48
44131;BME280;29792;48.726;9.248;2023-02-26T08:48:13;96690.19;;;0.79;87.96
44131;BME280;29792;48.726;9.248;2023-02-26T08:50:39;96700.19;;;0.63;88.22
44131;BME280;29792;48.726;9.248;2023-02-26T08:53:05;96698.00;;;0.55;88.79
44131;BME280;29792;48.726;9.248;2023-02-26T08:55:31;96699.19;;;0.48;89.38
44131;BME280;29792;48.726;9.248;2023-02-26T08:57:56;96708.63;;;0.43;90.38
44131;BME280;29792;48.726;9.248;2023-02-26T09:00:22;96708.63;;;0.43;90.93
44131;BME280;29792;48.726;9.248;2023-02-26T09:02:47;96703.75;;;0.40;91.72
44131;BME280;29792;48.726;9.248;2023-02-26T09:05:13;96711.97;;;0.44;91.57
44131;BME280;29792;48.726;9.248;2023-02-26T09:07:39;96703.66;;;0.42;91.67
44131;BME280;29792;48.726;9.248;2023-02-26T09:10:05;96712.31;;;0.36;92.14
44131;BME280;29792;48.726;9.248;2023-02-26T09:12:31;96714.16;;;0.32;92.50
44131;BME280;29792;48.726;9.248;2023-02-26T09:14:56;96709.38;;;0.26;92.32
44131;BME280;29792;48.726;9.248;2023-02-26T09:17:23;96708.31;;;0.32;93.02
44131;BME280;29792;48.726;9.248;2023-02-26T09:19:49;96712.38;;;0.34;93.27
44131;BME280;29792;48.726;9.248;2023-02-26T09:22:14;96715.63;;;0.36;93.12
44131;BME280;29792;48.726;9.248;2023-02-26T09:24:39;96714.81;;;0.36;93.52
44131;BME280;29792;48.726;9.248;2023-02-26T09:27:05;96718.97;;;0.37;93.58
44131;BME280;29792;48.726;9.248;2023-02-26T09:29:30;96725.66;;;0.38;93.19
44131;BME280;29792;48.726;9.248;2023-02-26T09:31:55;96728.84;;;0.42;93.77
44131;BME280;29792;48.726;9.248;2023-02-26T09:34:20;96733.75;;;0.45;93.73
44131;BME280;29792;48.726;9.248;2023-02-26T09:36:45;96734.78;;;0.41;93.48
44131;BME280;29792;48.726;9.248;2023-02-26T09:39:11;96736.50;;;0.40;93.86
44131;BME280;29792;48.726;9.248;2023-02-26T09:41:47;96727.00;;;0.45;93.73
44131;BME280;29792;48.726;9.248;2023-02-26T09:44:18;96745.34;;;0.49;93.75
44131;BME280;29792;48.726;9.248;2023-02-26T09:49:45;96748.47;;;0.54;93.07
44131;BME280;29792;48.726;9.248;2023-02-26T09:55:13;96751.97;;;0.50;92.95
44131;BME280;29792;48.726;9.248;2023-02-26T09:57:45;96748.66;;;0.49;92.84
44131;BME280;29792;48.726;9.248;2023-02-26T10:03:12;96758.19;;;0.43;93.37
44131;BME280;29792;48.726;9.248;2023-02-26T10:11:33;96765.06;;;0.39;92.85
44131;BME280;29792;48.726;9.248;2023-02-26T10:14:05;96771.13;;;0.35;92.75
44131;BME280;29792;48.726;9.248;2023-02-26T10:16:35;96777.03;;;0.34;93.16
44131;BME280;29792;48.726;9.248;2023-02-26T10:19:09;96767.84;;;0.33;93.74
44131;BME280;29792;48.726;9.248;2023-02-26T10:21:49;96772.31;;;0.26;93.44
44131;BME280;29792;48.726;9.248;2023-02-26T10:24:24;96770.91;;;0.21;93.54
44131;BME280;29792;48.726;9.248;2023-02-26T10:27:02;96773.41;;;0.21;93.59
44131;BME280;29792;48.726;9.248;2023-02-26T10:32:34;96765.81;;;0.22;94.36
44131;BME280;29792;48.726;9.248;2023-02-26T10:35:09;96779.28;;;0.21;94.38
44131;BME280;29792;48.726;9.248;2023-02-26T10:37:47;96776.00;;;0.19;94.27
44131;BME280;29792;48.726;9.248;2023-02-26T10:43:13;96782.69;;;0.20;94.49
44131;BME280;29792;48.726;9.248;2023-02-26T10:45:58;96777.53;;;0.23;94.82
44131;BME280;29792;48.726;9.248;2023-02-26T10:48:54;96776.53;;;0.26;94.75
44131;BME280;29792;48.726;9.248;2023-02-26T10:51:28;96782.06;;;0.34;94.89
44131;BME280;29792;48.726;9.248;2023-02-26T10:54:05;96782.56;;;0.42;94.90
44131;BME280;29792;48.726;9.248;2023-02-26T10:56:35;96780.66;;;0.47;94.40
44131;BME280;29792;48.726;9.248;2023-02-26T10:59:01;96783.66;;;0.55;93.84
44131;BME280;29792;48.726;9.248;2023-02-26T11:01:27;96777.31;;;0.65;93.25
44131;BME280;29792;48.726;9.248;2023-02-26T11:04:10;96782.34;;;0.84;93.72
44131;BME280;29792;48.726;9.248;2023-02-26T11:06:47;96781.19;;;0.91;92.70
44131;BME280;29792;48.726;9.248;2023-02-26T11:09:19;96777.72;;;0.94;91.83
44131;BME280;29792;48.726;9.248;2023-02-26T11:11:51;96773.16;;;1.02;92.27
44131;BME280;29792;48.726;9.248;2023-02-26T11:14:17;96771.09;;;1.10;91.66
44131;BME280;29792;48.726;9.248;2023-02-26T11:16:59;96766.78;;;1.12;91.00
44131;BME280;29792;48.726;9.248;2023-02-26T11:19:36;96773.19;;;1.19;91.03
44131;BME280;29792;48.726;9.248;2023-02-26T11:22:04;96780.72;;;1.38;90.42
44131;BME280;29792;48.726;9.248;2023-02-26T11:24:36;96781.38;;;1.41;89.50
44131;BME280;29792;48.726;9.248;2023-02-26T11:27:10;96774.69;;;1.40;88.81
44131;BME280;29792;48.726;9.248;2023-02-26T11:29:39;96779.88;;;1.37;88.95
44131;BME280;29792;48.726;9.248;2023-02-26T11:32:05;96779.66;;;1.42;88.50
44131;BME280;29792;48.726;9.248;2023-02-26T11:34:31;96778.25;;;1.36;87.67
44131;BME280;29792;48.726;9.248;2023-02-26T11:36:59;96777.50;;;1.34;87.75
44131;BME280;29792;48.726;9.248;2023-02-26T11:39:32;96774.59;;;1.25;87.24
44131;BME280;29792;48.726;9.248;2023-02-26T11:42:00;96780.59;;;1.22;87.88
44131;BME280;29792;48.726;9.248;2023-02-26T11:44:35;96782.91;;;1.27;88.34
44131;BME280;29792;48.726;9.248;2023-02-26T11:47:06;96784.19;;;1.35;88.33
44131;BME280;29792;48.726;9.248;2023-02-26T11:49:32;96781.22;;;1.44;88.84
44131;BME280;29792;48.726;9.248;2023-02-26T11:54:37;96774.09;;;1.35;87.34
44131;BME280;29792;48.726;9.248;2023-02-26T11:57:33;96777.72;;;1.30;87.00
44131;BME280;29792;48.726;9.248;2023-02-26T12:00:00;96777.94;;;1.25;86.80
44131;BME280;29792;48.726;9.248;2023-02-26T12:02:31;96778.75;;;1.26;87.18
44131;BME280;29792;48.726;9.248;2023-02-26T12:05:02;96772.53;;;1.33;87.07
44131;BME280;29792;48.726;9.248;2023-02-26T12:07:29;96765.84;;;1.32;87.08
44131;BME280;29792;48.726;9.248;2023-02-26T12:09:55;96766.88;;;1.28;86.39
44131;BME280;29792;48.726;9.248;2023-02-26T12:12:39;96771.53;;;1.18;86.85
44131;BME280;29792;48.726;9.248;2023-02-26T12:15:25;96781.03;;;1.13;86.62
44131;BME280;29792;48.726;9.248;2023-02-26T12:20:48;96786.31;;;1.26;87.74
44131;BME280;29792;48.726;9.248;2023-02-26T12:23:33;96778.38;;;1.33;86.91
44131;BME280;29792;48.726;9.248;2023-02-26T12:31:36;96785.09;;;1.51;86.62
44131;BME280;29792;48.726;9.248;2023-02-26T12:40:16;96788.53;;;1.32;86.22
44131;BME280;29792;48.726;9.248;2023-02-26T12:56:56;96790.22;;;1.67;86.86
44131;BME280;29792;48.726;9.248;2023-02-26T13:07:57;96799.13;;;1.74;85.13
44131;BME280;29792;48.726;9.248;2023-02-26T13:10:50;96798.16;;;1.77;85.14
44131;BME280;29792;48.726;9.248;2023-02-26T13:21:45;96792.44;;;1.56;85.81
44131;BME280;29792;48.726;9.248;2023-02-26T13:24:27;96801.06;;;1.52;85.47
44131;BME280;29792;48.726;9.248;2023-02-26T13:26:56;96797.78;;;1.50;85.93
44131;BME280;29792;48.726;9.248;2023-02-26T13:29:26;96793.69;;;1.47;85.84
44131;BME280;29792;48.726;9.248;2023-02-26T13:32:15;96789.69;;;1.43;85.93
44131;BME280;29792;48.726;9.248;2023-02-26T13:34:57;96798.97;;;1.43;86.04
44131;BME280;29792;48.726;9.248;2023-02-26T13:37:30;96797.78;;;1.50;85.82
44131;BME280;29792;48.726;9.248;2023-02-26T13:40:15;96807.38;;;1.78;85.86
44131;BME280;29792;48.726;9.248;2023-02-26T13:45:33;96806.50;;;2.12;82.73
44131;BME280;29792;48.726;9.248;2023-02-26T13:50:56;96803.81;;;2.65;83.64
44131;BME280;29792;48.726;9.248;2023-02-26T13:56:07;96801.25;;;4.03;81.86
44131;BME280;29792;48.726;9.248;2023-02-26T13:58:39;96798.06;;;4.14;73.87
44131;BME280;29792;48.726;9.248;2023-02-26T14:01:13;96799.47;;;3.90;69.67
44131;BME280;29792;48.726;9.248;2023-02-26T14:03:49;96802.38;;;3.83;69.86
44131;BME280;29792;48.726;9.248;2023-02-26T14:14:47;96815.16;;;3.05;71.65
44131;BME280;29792;48.726;9.248;2023-02-26T14:17:47;96812.38;;;2.94;71.06
44131;BME280;29792;48.726;9.248;2023-02-26T14:20:23;96813.78;;;2.84;70.73
44131;BME280;29792;48.726;9.248;2023-02-26T14:25:38;96821.31;;;2.68;69.97
44131;BME280;29792;48.726;9.248;2023-02-26T14:30:47;96814.00;;;2.63;70.93
44131;BME280;29792;48.726;9.248;2023-02-26T14:33:18;96820.63;;;2.66;71.05
44131;BME280;29792;48.726;9.248;2023-02-26T14:35:47;96808.13;;;2.79;71.47
44131;BME280;29792;48.726;9.248;2023-02-26T14:38:20;96815.66;;;2.96;71.09
44131;BME280;29792;48.726;9.248;2023-02-26T14:40:48;96820.38;;;3.02;70.53
44131;BME280;29792;48.726;9.248;2023-02-26T14:43:19;96819.31;;;3.22;71.11
44131;BME280;29792;48.726;9.248;2023-02-26T14:45:46;96817.81;;;3.49;71.09
44131;BME280;29792;48.726;9.248;2023-02-26T14:48:14;96809.41;;;3.78;70.36
44131;BME280;29792;48.726;9.248;2023-02-26T14:54:03;96818.84;;;3.91;66.90
44131;BME280;29792;48.726;9.248;2023-02-26T14:57:00;96827.72;;;3.98;67.29
44131;BME280;29792;48.726;9.248;2023-02-26T15:07:28;96849.44;;;3.26;65.82
44131;BME280;29792;48.726;9.248;2023-02-26T15:10:10;96841.59;;;3.47;68.40
44131;BME280;29792;48.726;9.248;2023-02-26T15:15:39;96838.25;;;4.06;65.78
44131;BME280;29792;48.726;9.248;2023-02-26T15:21:04;96842.53;;;3.60;64.88
44131;BME280;29792;48.726;9.248;2023-02-26T15:23:43;96857.84;;;3.27;65.92
44131;BME280;29792;48.726;9.248;2023-02-26T15:26:17;96851.81;;;2.98;65.76
44131;BME280;29792;48.726;9.248;2023-02-26T15:28:43;96866.22;;;2.80;66.14
44131;BME280;29792;48.726;9.248;2023-02-26T15:31:10;96875.75;;;2.59;66.63
44131;BME280;29792;48.726;9.248;2023-02-26T15:33:37;96862.31;;;2.42;67.00
44131;BME280;29792;48.726;9.248;2023-02-26T15:36:08;96873.91;;;2.28;67.28
44131;BME280;29792;48.726;9.248;2023-02-26T15:38:52;96880.66;;;2.28;67.46
44131;BME280;29792;48.726;9.248;2023-02-26T15:41:17;96886.84;;;2.40;68.92
44131;BME280;29792;48.726;9.248;2023-02-26T15:43:47;96875.41;;;2.65;68.91